Terminal Aerodrome Forecast
Issued by NWS

Home | Current Version | Previous Version | Text Only | Print | Product List | Glossary On
Versions: 1 2 3 4 5 6 7 8 9 10 11 12 13 14 15 16 17 18 19 20 21 22 23 24 25 26 27 28 29 30 31 32 33 34 35 36 37 38
000
FTUS44 KHGX 012320
TAFCXO
TAF
KCXO 012320Z 0200/0224 17010KT P6SM VCSH SCT035 BKN060 BKN080
      TEMPO 0200/0201 VRB15KT -TSRA BKN035CB
     FM020200 16008KT P6SM SCT025 BKN140
     FM020800 17006KT 5SM BR SCT007 OVC012
     FM021600 18010KT P6SM BKN022
     FM022000 17015KT P6SM SCT035=

USA.gov is the U.S. government's official web portal to all federal, state and local government web resources and services.